createdAt,value
2019-03-09T00:00:42.834Z,11.08
2019-03-09T00:03:10.265Z,8.80
2019-03-09T00:05:37.708Z,10.50
2019-03-09T00:08:04.847Z,13.62
2019-03-09T00:12:59.224Z,10.23
2019-03-09T00:15:26.555Z,9.70
2019-03-09T00:17:55.017Z,9.55
2019-03-09T00:20:22.559Z,8.43
2019-03-09T00:22:55.005Z,13.70
2019-03-09T00:25:26.822Z,10.08
2019-03-09T00:28:08.988Z,11.15
2019-03-09T00:30:41.600Z,8.10
2019-03-09T00:33:09.175Z,12.15
2019-03-09T00:35:36.577Z,9.00
2019-03-09T00:38:04.216Z,6.22
2019-03-09T00:40:31.669Z,8.63
2019-03-09T00:42:59.111Z,6.33
2019-03-09T00:45:26.550Z,8.45
2019-03-09T00:47:54.164Z,10.00
2019-03-09T00:50:21.592Z,6.75
2019-03-09T00:52:49.380Z,5.50
2019-03-09T00:55:16.830Z,9.80
2019-03-09T00:57:44.286Z,6.53
2019-03-09T01:00:16.775Z,10.88
2019-03-09T01:02:44.202Z,4.35
2019-03-09T01:05:11.585Z,5.25
2019-03-09T01:07:39.045Z,5.17
2019-03-09T01:10:08.701Z,5.20
2019-03-09T01:12:36.132Z,5.30
2019-03-09T01:15:03.876Z,6.00
2019-03-09T01:17:31.300Z,8.80
2019-03-09T01:19:58.741Z,4.33
2019-03-09T01:22:26.205Z,4.58
2019-03-09T01:24:53.645Z,6.28
2019-03-09T01:27:21.080Z,4.25
2019-03-09T01:29:48.524Z,4.65
2019-03-09T01:32:15.952Z,4.15
2019-03-09T01:34:43.409Z,5.08
2019-03-09T01:37:10.849Z,3.62
2019-03-09T01:39:38.268Z,3.87
2019-03-09T01:42:05.736Z,3.62
2019-03-09T01:44:33.184Z,3.37
2019-03-09T01:47:00.630Z,4.80
2019-03-09T01:49:28.068Z,6.20
2019-03-09T01:51:55.503Z,3.90
2019-03-09T01:54:22.966Z,4.12
2019-03-09T01:56:50.430Z,7.35
2019-03-09T01:59:17.924Z,3.12
2019-03-09T02:01:45.256Z,6.55
2019-03-09T02:04:12.687Z,4.80
2019-03-09T02:06:40.136Z,6.97
2019-03-09T02:09:07.557Z,4.72
2019-03-09T02:11:34.984Z,4.00
2019-03-09T02:14:02.436Z,3.02
2019-03-09T02:16:29.900Z,4.30
2019-03-09T02:18:57.345Z,4.25
2019-03-09T02:21:24.820Z,2.62
2019-03-09T02:23:52.172Z,2.75
2019-03-09T02:26:19.600Z,6.25
2019-03-09T02:28:47.054Z,2.85
2019-03-09T02:31:14.486Z,2.25
2019-03-09T02:33:41.940Z,3.15
2019-03-09T02:36:09.424Z,3.02
2019-03-09T02:38:42.113Z,2.85
2019-03-09T02:41:09.544Z,4.72
2019-03-09T02:43:37.121Z,3.50
2019-03-09T02:46:04.553Z,3.52
2019-03-09T02:48:31.987Z,4.78
2019-03-09T02:50:59.433Z,2.80
2019-03-09T02:53:26.892Z,3.22
2019-03-09T02:55:54.847Z,4.28
2019-03-09T02:58:22.317Z,3.25
2019-03-09T03:00:58.021Z,3.95
2019-03-09T03:03:25.477Z,3.60
2019-03-09T03:05:52.908Z,3.87
2019-03-09T03:08:20.351Z,4.00
2019-03-09T03:10:47.903Z,6.45
2019-03-09T03:13:15.352Z,4.40
2019-03-09T03:15:42.788Z,7.20
2019-03-09T03:18:10.241Z,4.42
2019-03-09T03:20:37.694Z,4.53
2019-03-09T03:23:05.120Z,4.85
2019-03-09T03:25:32.568Z,4.60
2019-03-09T03:27:59.794Z,7.12
2019-03-09T03:32:55.314Z,5.37
2019-03-09T03:35:22.841Z,4.90
2019-03-09T03:37:50.306Z,6.42
2019-03-09T03:40:17.716Z,7.72
2019-03-09T03:42:45.150Z,4.92
2019-03-09T03:45:12.589Z,5.58
2019-03-09T03:47:40.050Z,7.05
2019-03-09T03:50:07.478Z,6.87
2019-03-09T03:52:34.915Z,7.85
2019-03-09T03:55:02.352Z,4.55
2019-03-09T03:57:29.823Z,4.58
2019-03-09T03:59:57.257Z,5.67
2019-03-09T04:02:24.594Z,10.32
2019-03-09T04:04:51.843Z,5.65
2019-03-09T04:09:46.225Z,6.83
2019-03-09T04:12:13.680Z,5.87
2019-03-09T04:14:41.117Z,5.03
2019-03-09T04:17:09.634Z,5.80
2019-03-09T04:19:37.108Z,5.58
2019-03-09T04:22:04.442Z,8.35
2019-03-09T04:24:31.893Z,5.95
2019-03-09T04:26:59.324Z,5.10
2019-03-09T04:29:26.889Z,7.95
2019-03-09T04:31:54.316Z,7.00
2019-03-09T04:34:21.744Z,5.40
2019-03-09T04:36:54.992Z,7.80
2019-03-09T04:39:22.449Z,8.25
2019-03-09T04:41:52.283Z,4.95
2019-03-09T04:44:19.776Z,9.88
2019-03-09T04:46:47.236Z,5.00
2019-03-09T04:49:14.680Z,7.10
2019-03-09T04:51:42.115Z,8.30
2019-03-09T04:54:09.576Z,6.55
2019-03-09T04:56:37.009Z,6.05
2019-03-09T04:59:04.476Z,5.53
2019-03-09T05:01:31.864Z,8.58
2019-03-09T05:04:27.858Z,7.08
2019-03-09T05:06:55.286Z,7.75
2019-03-09T05:09:53.704Z,12.80
2019-03-09T05:12:21.139Z,10.50
2019-03-09T05:14:48.577Z,8.10
2019-03-09T05:17:16.023Z,11.88
2019-03-09T05:19:43.455Z,11.97
2019-03-09T05:22:10.920Z,7.53
2019-03-09T05:24:38.352Z,11.65
2019-03-09T05:27:05.780Z,16.52
2019-03-09T05:29:33.328Z,8.08
2019-03-09T05:32:00.752Z,21.00
2019-03-09T05:34:28.188Z,14.28
2019-03-09T05:36:55.433Z,12.88
2019-03-09T05:41:49.777Z,11.90
2019-03-09T05:44:17.228Z,12.13
2019-03-09T05:46:44.664Z,11.63
2019-03-09T05:49:12.088Z,14.60
2019-03-09T05:51:39.525Z,9.68
2019-03-09T05:54:06.947Z,15.85
2019-03-09T05:56:34.364Z,9.80
2019-03-09T05:59:01.825Z,11.57
2019-03-09T06:01:29.353Z,10.45
2019-03-09T06:03:56.776Z,12.73
2019-03-09T06:06:24.220Z,10.53
2019-03-09T06:08:51.672Z,8.75
2019-03-09T06:11:19.059Z,13.68
2019-03-09T06:13:46.514Z,12.85
2019-03-09T06:16:13.949Z,10.58
2019-03-09T06:18:41.384Z,10.08
2019-03-09T06:21:08.836Z,10.40
2019-03-09T06:23:36.276Z,10.00
2019-03-09T06:26:03.855Z,12.25
2019-03-09T06:28:31.284Z,13.18
2019-03-09T06:30:58.729Z,11.83
2019-03-09T06:33:33.583Z,9.23
2019-03-09T06:36:27.933Z,12.53
2019-03-09T06:39:31.389Z,10.40
2019-03-09T06:42:43.972Z,10.43
2019-03-09T06:45:13.208Z,14.23
2019-03-09T06:47:40.637Z,10.05
2019-03-09T06:50:09.796Z,14.28
2019-03-09T06:52:37.265Z,12.15
2019-03-09T06:55:06.076Z,17.82
2019-03-09T06:57:33.513Z,11.38
2019-03-09T07:00:01.541Z,10.13
2019-03-09T07:02:28.976Z,17.75
2019-03-09T07:04:56.415Z,14.83
2019-03-09T07:07:23.877Z,13.98
2019-03-09T07:09:51.328Z,20.15
2019-03-09T07:12:18.756Z,12.53
2019-03-09T07:15:24.875Z,11.25
2019-03-09T07:18:15.528Z,16.12
2019-03-09T07:20:43.028Z,18.57
2019-03-09T07:23:10.755Z,13.68
2019-03-09T07:25:38.787Z,11.40
2019-03-09T07:28:08.417Z,14.30
2019-03-09T07:30:35.995Z,14.23
2019-03-09T07:33:03.945Z,22.62
2019-03-09T07:35:31.364Z,16.15
2019-03-09T07:37:58.948Z,18.20
2019-03-09T07:40:26.428Z,11.20
2019-03-09T07:42:53.863Z,15.20
2019-03-09T07:45:21.297Z,16.12
2019-03-09T07:47:48.809Z,13.72
2019-03-09T07:50:16.228Z,14.40
2019-03-09T07:52:43.660Z,20.48
2019-03-09T07:55:12.520Z,12.23
2019-03-09T07:57:39.885Z,12.68
2019-03-09T08:00:10.309Z,16.20
2019-03-09T08:02:37.754Z,18.35
2019-03-09T08:05:05.392Z,17.92
2019-03-09T08:07:32.850Z,10.45
2019-03-09T08:10:00.403Z,17.80
2019-03-09T08:12:28.308Z,16.37
2019-03-09T08:14:55.660Z,17.98
2019-03-09T08:17:23.105Z,17.07
2019-03-09T08:19:50.581Z,13.70
2019-03-09T08:22:18.087Z,18.35
2019-03-09T08:24:45.521Z,21.00
2019-03-09T08:27:12.814Z,25.92
2019-03-09T08:29:40.243Z,14.47
2019-03-09T08:32:07.664Z,21.65
2019-03-09T08:34:35.120Z,18.23
2019-03-09T08:37:02.557Z,22.45
2019-03-09T08:39:30.000Z,18.05
2019-03-09T08:41:57.467Z,23.47
2019-03-09T08:44:25.020Z,21.05
2019-03-09T08:46:52.503Z,16.27
2019-03-09T08:49:20.018Z,23.83
2019-03-09T08:51:47.685Z,20.43
2019-03-09T08:54:15.129Z,25.27
2019-03-09T08:56:42.570Z,22.87
2019-03-09T08:59:10.023Z,34.98
2019-03-09T09:01:37.463Z,22.55
2019-03-09T09:04:04.980Z,23.25
2019-03-09T09:06:32.421Z,18.20
2019-03-09T09:08:59.856Z,21.57
2019-03-09T09:11:27.341Z,18.25
2019-03-09T09:13:54.781Z,21.35
2019-03-09T09:16:22.219Z,26.12
2019-03-09T09:18:49.672Z,26.85
2019-03-09T09:21:17.264Z,19.52
2019-03-09T09:23:44.708Z,20.68
2019-03-09T09:26:12.148Z,24.37
2019-03-09T09:28:39.495Z,30.70
2019-03-09T09:31:06.561Z,22.58
2019-03-09T09:33:34.065Z,22.10
2019-03-09T09:36:01.532Z,18.23
2019-03-09T09:38:28.996Z,30.30
2019-03-09T09:40:56.444Z,26.70
2019-03-09T09:43:23.912Z,23.60
2019-03-09T09:45:51.356Z,31.27
2019-03-09T09:48:18.866Z,24.65
2019-03-09T09:50:46.300Z,27.55
2019-03-09T09:53:13.780Z,32.10
2019-03-09T09:55:41.200Z,29.20
2019-03-09T09:58:08.724Z,32.48
2019-03-09T10:00:36.369Z,32.05
2019-03-09T10:03:03.784Z,29.37
2019-03-09T10:05:31.894Z,28.00
2019-03-09T10:07:59.305Z,25.72
2019-03-09T10:10:26.738Z,39.38
2019-03-09T10:12:55.930Z,28.95
2019-03-09T10:15:24.422Z,35.83
2019-03-09T10:17:51.857Z,26.65
2019-03-09T10:20:19.346Z,26.17
2019-03-09T10:22:46.780Z,28.52
2019-03-09T10:25:14.240Z,28.42
2019-03-09T10:27:41.804Z,23.10
2019-03-09T10:30:11.108Z,27.15
2019-03-09T10:32:38.589Z,34.53
2019-03-09T10:35:06.070Z,28.20
2019-03-09T10:37:33.493Z,25.17
2019-03-09T10:40:00.928Z,33.67
2019-03-09T10:42:28.351Z,29.42
2019-03-09T10:44:55.820Z,37.83
2019-03-09T10:47:23.243Z,31.77
2019-03-09T10:49:50.696Z,35.65
2019-03-09T10:52:18.252Z,28.90
2019-03-09T10:54:45.700Z,29.48
2019-03-09T10:57:13.133Z,34.25
2019-03-09T10:59:40.564Z,32.30
2019-03-09T11:02:08.021Z,34.90
2019-03-09T11:04:35.459Z,32.73
2019-03-09T11:07:02.525Z,30.75
2019-03-09T11:09:29.614Z,31.75
2019-03-09T11:11:57.072Z,34.63
2019-03-09T11:14:24.601Z,30.70
2019-03-09T11:16:52.088Z,33.45
2019-03-09T11:19:19.271Z,28.25
2019-03-09T11:24:13.218Z,31.37
2019-03-09T11:26:40.676Z,28.27
2019-03-09T11:29:08.116Z,31.82
2019-03-09T11:31:35.584Z,27.98
2019-03-09T11:34:03.124Z,30.43
2019-03-09T11:36:30.559Z,29.82
2019-03-09T11:38:57.937Z,32.42
2019-03-09T11:41:25.384Z,27.27
2019-03-09T11:43:52.829Z,31.95
2019-03-09T11:46:20.269Z,37.98
2019-03-09T11:48:47.728Z,35.45
2019-03-09T11:51:15.113Z,42.03
2019-03-09T11:53:42.553Z,35.17
2019-03-09T11:56:09.980Z,34.67
2019-03-09T11:58:38.295Z,35.17
2019-03-09T12:01:05.799Z,42.93
2019-03-09T12:03:33.229Z,42.38
2019-03-09T12:06:00.667Z,40.03
2019-03-09T12:08:28.084Z,38.88
2019-03-09T12:10:55.522Z,41.40
2019-03-09T12:13:22.927Z,45.30
2019-03-09T12:15:50.388Z,46.83
2019-03-09T12:18:17.958Z,39.15
2019-03-09T12:20:45.395Z,42.17
2019-03-09T12:23:18.239Z,42.00
2019-03-09T12:25:45.716Z,43.73
2019-03-09T12:28:13.140Z,48.55
2019-03-09T12:30:40.597Z,50.73
2019-03-09T12:33:08.124Z,40.75
2019-03-09T12:35:35.451Z,41.20
2019-03-09T12:38:02.660Z,44.95
2019-03-09T12:42:56.945Z,60.33
2019-03-09T12:45:25.470Z,49.38
2019-03-09T12:47:52.952Z,48.63
2019-03-09T12:50:20.503Z,47.98
2019-03-09T12:52:48.170Z,43.25
2019-03-09T12:55:15.608Z,47.73
2019-03-09T12:57:43.203Z,47.45
2019-03-09T13:00:13.125Z,53.58
2019-03-09T13:02:40.660Z,45.80
2019-03-09T13:05:08.175Z,45.55
2019-03-09T13:07:35.591Z,43.45
2019-03-09T13:10:03.377Z,34.63
2019-03-09T13:12:30.837Z,35.52
2019-03-09T13:14:58.264Z,32.25
2019-03-09T13:17:25.688Z,38.60
2019-03-09T13:19:53.471Z,28.85
2019-03-09T13:22:20.948Z,30.80
2019-03-09T13:24:48.485Z,39.63
2019-03-09T13:27:15.916Z,39.98
2019-03-09T13:29:43.382Z,28.52
2019-03-09T13:32:10.860Z,36.75
2019-03-09T13:34:38.284Z,37.67
2019-03-09T13:37:05.732Z,29.92
2019-03-09T13:39:33.193Z,31.33
2019-03-09T13:42:00.661Z,22.52
2019-03-09T13:44:28.148Z,23.98
2019-03-09T13:46:55.573Z,23.92
2019-03-09T13:49:23.008Z,33.48
2019-03-09T13:51:50.455Z,27.60
2019-03-09T13:54:18.059Z,28.30
2019-03-09T13:56:45.523Z,31.68
2019-03-09T13:59:12.958Z,29.25
2019-03-09T14:01:40.390Z,25.23
2019-03-09T14:04:07.828Z,35.28
2019-03-09T14:06:35.262Z,23.47
2019-03-09T14:09:03.219Z,29.23
2019-03-09T14:11:30.648Z,29.00
2019-03-09T14:13:58.087Z,26.42
2019-03-09T14:16:25.324Z,27.32
2019-03-09T14:21:19.699Z,30.70
2019-03-09T14:23:47.145Z,27.15
2019-03-09T14:26:14.576Z,27.35
2019-03-09T14:28:42.051Z,25.30
2019-03-09T14:31:09.489Z,27.93
2019-03-09T14:33:36.965Z,25.88
2019-03-09T14:36:04.392Z,32.67
2019-03-09T14:38:31.833Z,28.38
2019-03-09T14:40:59.295Z,27.60
2019-03-09T14:43:26.744Z,25.15
2019-03-09T14:45:54.100Z,28.98
2019-03-09T14:48:21.533Z,32.73
2019-03-09T14:50:48.966Z,26.12
2019-03-09T14:53:16.411Z,22.40
2019-03-09T14:55:43.833Z,33.90
2019-03-09T14:58:11.281Z,22.32
2019-03-09T15:00:38.711Z,30.15
2019-03-09T15:03:06.149Z,32.23
2019-03-09T15:05:33.573Z,22.95
2019-03-09T15:08:01.038Z,33.40
2019-03-09T15:10:28.476Z,34.80
2019-03-09T15:12:55.973Z,20.97
2019-03-09T15:15:23.440Z,38.42
2019-03-09T15:17:50.850Z,31.37
2019-03-09T15:20:18.129Z,30.60
2019-03-09T15:25:12.413Z,32.95
2019-03-09T15:27:39.837Z,34.18
2019-03-09T15:30:09.001Z,30.50
2019-03-09T15:32:36.426Z,37.17
2019-03-09T15:35:04.154Z,33.33
2019-03-09T15:37:31.615Z,39.60
2019-03-09T15:39:58.940Z,35.95
2019-03-09T15:42:26.389Z,41.65
2019-03-09T15:44:53.832Z,31.45
2019-03-09T15:47:21.299Z,36.63
2019-03-09T15:49:48.763Z,35.30
2019-03-09T15:52:16.195Z,34.05
2019-03-09T15:54:43.628Z,35.80
2019-03-09T15:57:11.096Z,33.80
2019-03-09T15:59:38.533Z,37.78
2019-03-09T16:02:08.665Z,39.95
2019-03-09T16:04:36.211Z,39.10
2019-03-09T16:07:05.784Z,31.45
2019-03-09T16:09:33.212Z,31.77
2019-03-09T16:12:00.681Z,34.58
2019-03-09T16:14:28.104Z,33.80
2019-03-09T16:16:55.540Z,35.92
2019-03-09T16:19:24.064Z,25.60
2019-03-09T16:21:51.436Z,27.77
2019-03-09T16:24:18.953Z,29.75
2019-03-09T16:26:46.380Z,37.20
2019-03-09T16:29:13.828Z,38.02
2019-03-09T16:31:41.270Z,43.80
2019-03-09T16:34:08.695Z,38.38
2019-03-09T16:36:36.116Z,39.18
2019-03-09T16:39:04.317Z,42.33
2019-03-09T16:41:33.186Z,44.65
2019-03-09T16:44:00.680Z,39.92
2019-03-09T16:46:28.110Z,42.78
2019-03-09T16:48:55.544Z,43.75
2019-03-09T16:51:22.976Z,40.50
2019-03-09T16:53:50.424Z,37.25
2019-03-09T16:56:17.890Z,36.33
2019-03-09T16:58:45.315Z,37.40
2019-03-09T17:01:12.747Z,30.12
2019-03-09T17:03:40.197Z,32.90
2019-03-09T17:06:07.633Z,40.73
2019-03-09T17:08:34.873Z,39.08
2019-03-09T17:13:29.248Z,39.03
2019-03-09T17:15:56.683Z,38.88
2019-03-09T17:18:24.136Z,30.12
2019-03-09T17:20:51.749Z,23.52
2019-03-09T17:23:19.193Z,20.62
2019-03-09T17:25:46.588Z,28.85
2019-03-09T17:28:14.024Z,26.62
2019-03-09T17:30:41.376Z,31.82
2019-03-09T17:33:08.909Z,28.35
2019-03-09T17:35:36.336Z,30.37
2019-03-09T17:38:04.014Z,22.98
2019-03-09T17:40:31.468Z,35.80
2019-03-09T17:42:58.945Z,37.60
2019-03-09T17:45:26.500Z,38.90
2019-03-09T17:47:53.659Z,42.75
2019-03-09T17:52:48.113Z,39.00
2019-03-09T17:55:15.593Z,42.53
2019-03-09T17:57:43.030Z,39.10
2019-03-09T18:00:18.866Z,49.10
2019-03-09T18:02:46.292Z,38.40
2019-03-09T18:05:13.765Z,41.42
2019-03-09T18:07:41.121Z,44.98
2019-03-09T18:10:18.526Z,48.48
2019-03-09T18:12:45.973Z,37.20
2019-03-09T18:15:13.432Z,55.35
2019-03-09T18:17:40.857Z,56.77
2019-03-09T18:20:08.559Z,39.73
2019-03-09T18:22:35.988Z,51.65
2019-03-09T18:25:03.836Z,47.67
2019-03-09T18:27:31.286Z,42.45
2019-03-09T18:29:58.839Z,44.88
2019-03-09T18:32:26.293Z,43.17
2019-03-09T18:34:53.728Z,33.85
2019-03-09T18:37:21.157Z,50.60
2019-03-09T18:39:48.773Z,43.98
2019-03-09T18:42:16.251Z,45.00
2019-03-09T18:44:43.709Z,43.80
2019-03-09T18:47:11.168Z,49.63
2019-03-09T18:49:38.595Z,43.28
2019-03-09T18:52:06.148Z,43.75
2019-03-09T18:54:33.590Z,45.95
2019-03-09T18:57:01.031Z,41.08
2019-03-09T18:59:28.463Z,45.92
2019-03-09T19:01:56.048Z,33.58
2019-03-09T19:04:23.487Z,42.60
2019-03-09T19:06:50.972Z,49.18
2019-03-09T19:09:18.450Z,40.83
2019-03-09T19:11:45.882Z,44.27
2019-03-09T19:14:13.318Z,42.17
2019-03-09T19:16:41.022Z,44.33
2019-03-09T19:19:08.517Z,42.23
2019-03-09T19:21:35.968Z,37.95
2019-03-09T19:24:03.448Z,37.70
2019-03-09T19:26:30.896Z,37.10
2019-03-09T19:28:58.354Z,40.23
2019-03-09T19:31:25.836Z,44.42
2019-03-09T19:33:53.280Z,40.63
2019-03-09T19:36:20.757Z,40.03
2019-03-09T19:38:48.340Z,49.05
2019-03-09T19:41:15.794Z,49.65
2019-03-09T19:43:43.364Z,43.78
2019-03-09T19:46:10.790Z,45.33
2019-03-09T19:48:38.247Z,40.33
2019-03-09T19:51:05.737Z,38.25
2019-03-09T19:53:33.297Z,43.02
2019-03-09T19:56:00.738Z,39.25
2019-03-09T19:58:28.197Z,43.60
2019-03-09T20:00:55.653Z,39.73
2019-03-09T20:03:23.124Z,36.60
2019-03-09T20:05:50.469Z,39.65
2019-03-09T20:08:17.847Z,38.13
2019-03-09T20:10:45.315Z,47.15
2019-03-09T20:13:12.736Z,35.78
2019-03-09T20:15:40.192Z,47.73
2019-03-09T20:18:07.648Z,43.23
2019-03-09T20:20:35.130Z,43.05
2019-03-09T20:23:02.558Z,49.13
2019-03-09T20:25:29.997Z,50.75
2019-03-09T20:27:57.592Z,38.92
2019-03-09T20:30:25.152Z,52.58
2019-03-09T20:32:52.600Z,53.10
2019-03-09T20:35:20.057Z,55.43
2019-03-09T20:37:47.552Z,47.27
2019-03-09T20:40:15.220Z,46.50
2019-03-09T20:42:42.668Z,45.15
2019-03-09T20:45:11.589Z,50.98
2019-03-09T20:47:39.090Z,48.85
2019-03-09T20:50:08.200Z,40.33
2019-03-09T20:52:35.540Z,50.95
2019-03-09T20:55:03.012Z,37.80
2019-03-09T20:57:30.465Z,37.65
2019-03-09T20:59:57.918Z,41.75
2019-03-09T21:02:25.362Z,39.95
2019-03-09T21:04:52.814Z,48.02
2019-03-09T21:07:20.291Z,47.10
2019-03-09T21:09:48.154Z,35.88
2019-03-09T21:12:15.700Z,37.20
2019-03-09T21:14:43.288Z,43.40
2019-03-09T21:17:10.722Z,37.23
2019-03-09T21:19:38.064Z,42.17
2019-03-09T21:22:05.533Z,37.70
2019-03-09T21:24:32.981Z,37.67
2019-03-09T21:27:00.488Z,33.25
2019-03-09T21:29:27.955Z,35.63
2019-03-09T21:31:55.426Z,32.45
2019-03-09T21:34:22.752Z,30.27
2019-03-09T21:36:50.192Z,40.23
2019-03-09T21:39:17.689Z,34.18
2019-03-09T21:41:45.115Z,30.45
2019-03-09T21:44:12.565Z,39.35
2019-03-09T21:46:40.013Z,33.75
2019-03-09T21:49:07.463Z,36.20
2019-03-09T21:51:34.685Z,37.33
2019-03-09T21:56:29.050Z,33.50
2019-03-09T21:58:56.529Z,36.45
2019-03-09T22:01:23.982Z,31.60
2019-03-09T22:03:51.416Z,35.65
2019-03-09T22:06:18.876Z,34.03
2019-03-09T22:08:46.277Z,33.40
2019-03-09T22:11:13.517Z,36.48
2019-03-09T22:16:08.145Z,35.75
2019-03-09T22:18:35.591Z,30.45
2019-03-09T22:21:03.069Z,32.45
2019-03-09T22:23:30.500Z,33.60
2019-03-09T22:25:57.944Z,37.83
2019-03-09T22:28:26.880Z,31.93
2019-03-09T22:30:54.349Z,32.35
2019-03-09T22:33:21.788Z,33.35
2019-03-09T22:35:49.329Z,30.85
2019-03-09T22:38:16.756Z,28.00
2019-03-09T22:40:44.189Z,33.67
2019-03-09T22:43:11.624Z,44.33
2019-03-09T22:45:39.101Z,33.85
2019-03-09T22:48:06.529Z,33.55
2019-03-09T22:50:33.959Z,31.73
2019-03-09T22:53:01.429Z,34.43
2019-03-09T22:55:28.866Z,37.58
2019-03-09T22:57:56.317Z,26.40
2019-03-09T23:00:23.860Z,30.57
2019-03-09T23:02:51.324Z,30.95
2019-03-09T23:05:18.804Z,38.85
2019-03-09T23:07:46.257Z,40.03
2019-03-09T23:10:14.463Z,29.80
2019-03-09T23:12:41.913Z,33.85
2019-03-09T23:15:10.923Z,26.62
2019-03-09T23:17:38.396Z,35.25
2019-03-09T23:20:07.248Z,42.03
2019-03-09T23:22:34.679Z,31.73
2019-03-09T23:25:02.138Z,38.75
2019-03-09T23:27:29.570Z,36.65
2019-03-09T23:29:57.009Z,33.25
2019-03-09T23:32:24.471Z,38.70
2019-03-09T23:34:51.917Z,34.08
2019-03-09T23:37:19.450Z,44.63
2019-03-09T23:39:46.901Z,40.52
2019-03-09T23:42:14.337Z,42.78
2019-03-09T23:44:41.794Z,44.75
2019-03-09T23:47:09.194Z,44.77
2019-03-09T23:49:36.633Z,40.50
2019-03-09T23:52:04.493Z,34.35
2019-03-09T23:54:31.953Z,42.53
2019-03-09T23:56:59.393Z,32.38
2019-03-09T23:59:26.856Z,42.23
